IE-0021 weather

Eniskeane Airfield
Eniskeane, Ireland

Public forecast

Using degrees Celsius for public forecast. Weather courtesy of forecast.io.

METAR (pilot weather report)

Closest report is Cork Airport, 15.2 nm (28.1 km) ENE. Retrieved 2019/06/18 10:30 UTC (0 seconds ago):

EICK 181030Z 20004KT 160V280 9999 FEW018 SCT080 15/09 Q1013 NOSIG

TAF (pilot weather forecast)

Closest forecast is Cork Airport, 15.2 nm (28.1 km) ENE. Retrieved 2019/06/18 06:11 UTC (4 hours ago):

TAF EICK 180500Z 1806/1906 30005KT 9999 FEW001 TEMPO 1806/1807 0800 FG SCT001 BECMG 1811/1813 19012KT BECMG 1820/1822 33010KT